createdAt,value
2022-08-02T00:01:45.871Z,101147.28
2022-08-02T00:04:15.239Z,101142.19
2022-08-02T00:06:43.211Z,101140.75
2022-08-02T00:09:11.287Z,101151.44
2022-08-02T00:11:39.258Z,101146.44
2022-08-02T00:14:11.453Z,101148.81
2022-08-02T00:16:39.505Z,101145.88
2022-08-02T00:19:07.508Z,101144.06
2022-08-02T00:21:36.806Z,101157.63
2022-08-02T00:24:29.572Z,101157.22
2022-08-02T00:26:53.322Z,101162.75
2022-08-02T00:29:21.229Z,101167.78
2022-08-02T00:31:49.144Z,101170.34
2022-08-02T00:34:28.619Z,101176.13
2022-08-02T00:37:00.468Z,101184.19
2022-08-02T00:39:33.473Z,101182.31
2022-08-02T00:42:03.659Z,101183.66
2022-08-02T00:44:31.890Z,101192.06
2022-08-02T00:46:59.832Z,101188.84
2022-08-02T00:49:28.230Z,101195.41
2022-08-02T00:51:56.295Z,101201.72
2022-08-02T00:54:25.574Z,101205.66
2022-08-02T00:56:53.475Z,101206.50
2022-08-02T00:59:21.447Z,101206.13
2022-08-02T01:01:57.411Z,101212.38
2022-08-02T01:04:31.340Z,101207.47
2022-08-02T01:07:00.750Z,101211.91
2022-08-02T01:09:30.060Z,101217.53
2022-08-02T01:11:57.966Z,101214.06
2022-08-02T01:14:31.147Z,101219.56
2022-08-02T01:17:07.864Z,101221.41
2022-08-02T01:19:43.481Z,101225.13
2022-08-02T01:23:02.908Z,101222.72
2022-08-02T01:25:51.512Z,101229.53
2022-08-02T01:28:37.260Z,101229.53
2022-08-02T01:31:13.802Z,101231.34
2022-08-02T01:33:46.883Z,101228.31
2022-08-02T01:36:18.770Z,101237.09
2022-08-02T01:38:50.821Z,101232.75
2022-08-02T01:41:21.471Z,101237.78
2022-08-02T01:43:55.058Z,101238.75
2022-08-02T01:46:24.266Z,101241.84
2022-08-02T01:48:54.435Z,101241.59
2022-08-02T01:51:45.252Z,101243.03
2022-08-02T01:54:17.175Z,101251.66
2022-08-02T01:56:46.673Z,101244.06
2022-08-02T01:59:19.858Z,101249.69
2022-08-02T02:01:50.508Z,101250.41
2022-08-02T02:04:19.185Z,101251.81
2022-08-02T02:06:48.836Z,101251.56
2022-08-02T02:09:17.571Z,101255.88
2022-08-02T02:12:06.215Z,101258.38
2022-08-02T02:14:38.521Z,101258.50
2022-08-02T02:17:08.122Z,101258.75
2022-08-02T02:19:59.019Z,101262.13
2022-08-02T02:22:27.134Z,101267.78
2022-08-02T02:24:55.659Z,101260.84
2022-08-02T02:27:24.922Z,101268.03
2022-08-02T02:29:55.518Z,101266.84
2022-08-02T02:32:28.805Z,101270.69
2022-08-02T02:34:57.971Z,101268.16
2022-08-02T02:37:29.078Z,101277.91
2022-08-02T02:39:58.546Z,101281.47
2022-08-02T02:42:31.422Z,101286.06
2022-08-02T02:45:02.075Z,101296.47
2022-08-02T02:47:41.115Z,101294.09
2022-08-02T02:50:11.043Z,101291.69
2022-08-02T02:52:40.902Z,101288.22
2022-08-02T02:55:10.851Z,101292.88
2022-08-02T02:57:39.716Z,101297.47
2022-08-02T03:00:11.896Z,101299.38
2022-08-02T03:02:41.168Z,101296.72
2022-08-02T03:05:11.234Z,101300.53
2022-08-02T03:07:39.972Z,101297.22
2022-08-02T03:10:09.444Z,101305.00
2022-08-02T03:12:37.875Z,101302.94
2022-08-02T03:15:08.456Z,101308.44
2022-08-02T03:17:42.503Z,101311.69
2022-08-02T03:20:13.449Z,101313.59
2022-08-02T03:22:41.714Z,101316.09
2022-08-02T03:25:11.019Z,101324.63
2022-08-02T03:27:39.017Z,101322.47
2022-08-02T03:30:09.127Z,101321.50
2022-08-02T03:32:38.083Z,101320.69
2022-08-02T03:35:10.531Z,101329.53
2022-08-02T03:37:39.088Z,101328.84
2022-08-02T03:40:09.931Z,101332.28
2022-08-02T03:42:38.644Z,101335.28
2022-08-02T03:45:10.196Z,101333.50
2022-08-02T03:47:40.632Z,101319.03
2022-08-02T03:50:13.432Z,101331.84
2022-08-02T03:52:43.573Z,101327.63
2022-08-02T03:55:12.648Z,101339.50
2022-08-02T03:57:41.525Z,101339.13
2022-08-02T04:00:11.344Z,101348.72
2022-08-02T04:02:39.275Z,101342.47
2022-08-02T04:05:07.735Z,101348.84
2022-08-02T04:08:32.823Z,101351.47
2022-08-02T04:10:25.016Z,101352.56
2022-08-02T04:12:53.352Z,101354.47
2022-08-02T04:15:21.891Z,101348.22
2022-08-02T04:17:54.171Z,101353.88
2022-08-02T04:20:26.160Z,101352.81
2022-08-02T04:23:01.585Z,101357.84
2022-08-02T04:25:35.452Z,101361.41
2022-08-02T04:28:17.614Z,101363.22
2022-08-02T04:30:47.496Z,101367.03
2022-08-02T04:33:16.171Z,101373.66
2022-08-02T04:35:44.871Z,101379.53
2022-08-02T04:38:16.472Z,101381.06
2022-08-02T04:40:52.352Z,101387.19
2022-08-02T04:43:20.928Z,101378.31
2022-08-02T04:45:50.750Z,101382.13
2022-08-02T04:48:18.735Z,101383.59
2022-08-02T04:50:46.812Z,101379.13
2022-08-02T04:53:16.287Z,101387.28
2022-08-02T04:55:44.394Z,101391.94
2022-08-02T04:58:38.255Z,101402.97
2022-08-02T05:01:00.325Z,101391.72
2022-08-02T05:03:28.246Z,101392.56
2022-08-02T05:05:56.147Z,101393.97
2022-08-02T05:08:25.445Z,101395.44
2022-08-02T05:10:53.396Z,101394.22
2022-08-02T05:13:21.380Z,101396.25
2022-08-02T05:15:50.565Z,101391.31
2022-08-02T05:18:18.852Z,101393.94
2022-08-02T05:20:46.840Z,101401.13
2022-08-02T05:23:14.790Z,101405.44
2022-08-02T05:25:44.112Z,101408.03
2022-08-02T05:28:12.086Z,101407.53
2022-08-02T05:30:40.198Z,101415.69
2022-08-02T05:33:08.552Z,101418.56
2022-08-02T05:35:37.064Z,101405.13
2022-08-02T05:38:05.160Z,101414.50
2022-08-02T05:40:54.200Z,101411.09
2022-08-02T05:43:24.402Z,101419.28
2022-08-02T05:45:54.568Z,101427.19
2022-08-02T05:48:26.393Z,101428.38
2022-08-02T05:51:04.625Z,101433.63
2022-08-02T05:53:40.023Z,101429.06
2022-08-02T05:56:19.053Z,101425.53
2022-08-02T05:58:54.199Z,101426.31
2022-08-02T06:01:29.093Z,101426.22
2022-08-02T06:04:00.196Z,101432.34
2022-08-02T06:06:28.204Z,101432.63
2022-08-02T06:09:01.215Z,101439.56
2022-08-02T06:11:36.839Z,101438.53
2022-08-02T06:14:07.838Z,101440.00
2022-08-02T06:16:37.605Z,101441.75
2022-08-02T06:19:12.582Z,101436.53
2022-08-02T06:22:37.689Z,101433.88
2022-08-02T06:24:31.868Z,101433.19
2022-08-02T06:27:01.707Z,101430.22
2022-08-02T06:29:37.001Z,101438.81
2022-08-02T06:32:09.165Z,101431.63
2022-08-02T06:34:40.207Z,101428.50
2022-08-02T06:37:13.647Z,101426.53
2022-08-02T06:39:48.712Z,101423.97
2022-08-02T06:42:24.130Z,101424.19
2022-08-02T06:44:58.120Z,101425.72
2022-08-02T06:47:26.732Z,101429.06
2022-08-02T06:49:55.136Z,101427.94
2022-08-02T06:52:29.412Z,101427.91
2022-08-02T06:54:59.592Z,101428.75
2022-08-02T06:57:28.032Z,101428.13
2022-08-02T06:59:58.457Z,101426.19
2022-08-02T07:02:26.652Z,101419.31
2022-08-02T07:04:55.663Z,101424.81
2022-08-02T07:07:23.695Z,101429.81
2022-08-02T07:09:56.239Z,101432.19
2022-08-02T07:12:29.501Z,101422.38
2022-08-02T07:14:59.232Z,101430.00
2022-08-02T07:17:27.344Z,101430.97
2022-08-02T07:19:55.251Z,101444.97
2022-08-02T07:22:24.636Z,101437.22
2022-08-02T07:24:53.006Z,101439.09
2022-08-02T07:27:21.772Z,101443.69
2022-08-02T07:29:49.845Z,101435.00
2022-08-02T07:32:20.003Z,101430.44
2022-08-02T07:34:50.587Z,101436.47
2022-08-02T07:37:35.015Z,101442.84
2022-08-02T07:40:14.166Z,101443.97
2022-08-02T07:42:43.243Z,101445.34
2022-08-02T07:45:12.624Z,101446.84
2022-08-02T07:47:43.122Z,101448.09
2022-08-02T07:50:12.235Z,101455.06
2022-08-02T07:52:40.870Z,101454.44
2022-08-02T07:55:09.698Z,101448.75
2022-08-02T07:57:42.481Z,101435.41
2022-08-02T08:00:16.239Z,101426.75
2022-08-02T08:02:46.343Z,101429.09
2022-08-02T08:05:15.281Z,101441.38
2022-08-02T08:07:43.260Z,101446.34
2022-08-02T08:10:11.896Z,101453.47
2022-08-02T08:12:39.811Z,101468.59
2022-08-02T08:15:08.409Z,101457.56
2022-08-02T08:17:36.348Z,101453.25
2022-08-02T08:20:07.042Z,101444.88
2022-08-02T08:22:35.189Z,101451.41
2022-08-02T08:25:03.227Z,101451.81
2022-08-02T08:27:32.289Z,101452.25
2022-08-02T08:30:00.389Z,101454.06
2022-08-02T08:32:28.270Z,101458.72
2022-08-02T08:34:56.220Z,101456.72
2022-08-02T08:37:25.593Z,101460.63
2022-08-02T08:39:58.286Z,101452.09
2022-08-02T08:42:28.108Z,101454.91
2022-08-02T08:44:57.795Z,101468.59
2022-08-02T08:47:33.615Z,101459.22
2022-08-02T08:50:05.104Z,101461.97
2022-08-02T08:52:37.933Z,101459.22
2022-08-02T08:55:09.167Z,101465.03
2022-08-02T08:57:41.699Z,101466.53
2022-08-02T09:00:10.865Z,101471.16
2022-08-02T09:02:38.790Z,101457.75
2022-08-02T09:05:08.354Z,101467.78
2022-08-02T09:07:37.679Z,101478.31
2022-08-02T09:10:33.246Z,101484.38
2022-08-02T09:13:37.859Z,101489.91
2022-08-02T09:16:13.009Z,101481.84
2022-08-02T09:18:44.762Z,101488.78
2022-08-02T09:21:13.682Z,101487.63
2022-08-02T09:23:45.685Z,101480.41
2022-08-02T09:26:15.502Z,101484.06
2022-08-02T09:28:47.419Z,101483.38
2022-08-02T09:31:18.158Z,101481.13
2022-08-02T09:33:51.916Z,101480.38
2022-08-02T09:36:19.975Z,101476.56
2022-08-02T09:38:57.431Z,101480.72
2022-08-02T09:41:28.392Z,101474.75
2022-08-02T09:44:05.087Z,101476.03
2022-08-02T09:46:37.680Z,101472.53
2022-08-02T09:49:09.342Z,101475.25
2022-08-02T09:51:39.320Z,101478.22
2022-08-02T09:54:12.022Z,101478.69
2022-08-02T09:56:47.708Z,101474.19
2022-08-02T09:59:16.983Z,101478.69
2022-08-02T10:01:51.059Z,101473.06
2022-08-02T10:04:30.466Z,101472.91
2022-08-02T10:06:59.675Z,101473.44
2022-08-02T10:09:29.850Z,101461.97
2022-08-02T10:11:58.782Z,101467.97
2022-08-02T10:14:27.754Z,101470.03
2022-08-02T10:16:57.814Z,101466.34
2022-08-02T10:20:02.213Z,101466.22
2022-08-02T10:22:19.760Z,101467.34
2022-08-02T10:24:50.473Z,101468.88
2022-08-02T10:27:21.053Z,101465.59
2022-08-02T10:29:54.236Z,101458.59
2022-08-02T10:32:27.998Z,101454.59
2022-08-02T10:35:18.808Z,101464.09
2022-08-02T10:37:51.845Z,101455.09
2022-08-02T10:40:24.455Z,101460.81
2022-08-02T10:42:55.064Z,101461.19
2022-08-02T10:45:24.164Z,101459.75
2022-08-02T10:48:03.588Z,101450.47
2022-08-02T10:50:53.707Z,101448.06
2022-08-02T10:53:26.910Z,101449.78
2022-08-02T10:55:58.080Z,101444.84
2022-08-02T10:58:30.296Z,101449.53
2022-08-02T11:00:59.529Z,101445.84
2022-08-02T11:03:42.249Z,101454.47
2022-08-02T11:06:25.691Z,101452.19
2022-08-02T11:09:32.007Z,101447.56
2022-08-02T11:12:04.730Z,101444.81
2022-08-02T11:14:35.147Z,101447.47
2022-08-02T11:17:15.175Z,101458.59
2022-08-02T11:20:18.037Z,101457.47
2022-08-02T11:22:48.139Z,101452.72
2022-08-02T11:26:00.887Z,101449.06
2022-08-02T11:28:25.051Z,101446.75
2022-08-02T11:31:03.081Z,101444.47
2022-08-02T11:33:36.096Z,101450.97
2022-08-02T11:36:07.559Z,101445.50
2022-08-02T11:38:35.771Z,101453.50
2022-08-02T11:41:09.588Z,101450.50
2022-08-02T11:43:39.919Z,101442.19
2022-08-02T11:46:15.154Z,101441.00
2022-08-02T11:48:45.142Z,101436.38
2022-08-02T11:51:14.611Z,101434.88
2022-08-02T11:53:47.351Z,101436.88
2022-08-02T11:56:21.888Z,101436.25
2022-08-02T11:59:05.871Z,101441.25
2022-08-02T12:01:35.234Z,101433.06
2022-08-02T12:04:13.440Z,101438.94
2022-08-02T12:06:41.456Z,101434.72
2022-08-02T12:09:17.970Z,101436.72
2022-08-02T12:11:50.443Z,101435.56
2022-08-02T12:14:19.915Z,101434.72
2022-08-02T12:17:06.266Z,101434.94
2022-08-02T12:19:34.543Z,101436.78
2022-08-02T12:22:11.076Z,101433.25
2022-08-02T12:24:40.348Z,101428.94
2022-08-02T12:27:09.022Z,101436.44
2022-08-02T12:29:57.916Z,101438.59
2022-08-02T12:32:27.463Z,101439.25
2022-08-02T12:35:08.040Z,101432.56
2022-08-02T12:37:36.303Z,101431.59
2022-08-02T12:40:26.099Z,101433.25
2022-08-02T12:42:57.397Z,101423.41
2022-08-02T12:45:38.351Z,101414.25
2022-08-02T12:48:09.570Z,101422.78
2022-08-02T12:50:38.500Z,101418.75
2022-08-02T12:53:08.592Z,101425.78
2022-08-02T12:56:01.999Z,101425.41
2022-08-02T12:58:28.929Z,101426.56
2022-08-02T13:01:00.688Z,101422.41
2022-08-02T13:04:10.269Z,101424.28
2022-08-02T13:06:41.320Z,101419.25
2022-08-02T13:09:13.795Z,101415.59
2022-08-02T13:11:43.436Z,101418.09
2022-08-02T13:14:12.140Z,101412.09
2022-08-02T13:16:42.439Z,101404.22
2022-08-02T13:19:10.607Z,101406.53
2022-08-02T13:21:41.468Z,101412.03
2022-08-02T13:24:38.842Z,101403.03
2022-08-02T13:27:14.369Z,101402.69
2022-08-02T13:29:42.234Z,101403.69
2022-08-02T13:32:11.966Z,101410.53
2022-08-02T13:34:40.402Z,101393.81
2022-08-02T13:37:08.340Z,101395.13
2022-08-02T13:39:36.217Z,101383.28
2022-08-02T13:42:04.247Z,101388.81
2022-08-02T13:44:34.040Z,101384.28
2022-08-02T13:47:02.549Z,101392.00
2022-08-02T13:49:51.290Z,101386.16
2022-08-02T13:52:19.885Z,101377.81
2022-08-02T13:54:47.827Z,101382.81
2022-08-02T13:57:15.782Z,101375.94
2022-08-02T13:59:55.828Z,101378.63
2022-08-02T14:02:26.152Z,101372.09
2022-08-02T14:04:55.567Z,101377.09
2022-08-02T14:07:23.480Z,101374.44
2022-08-02T14:09:51.500Z,101361.28
2022-08-02T14:12:20.386Z,101357.97
2022-08-02T14:14:48.306Z,101346.44
2022-08-02T14:17:18.819Z,101349.63
2022-08-02T14:19:47.039Z,101350.47
2022-08-02T14:22:16.482Z,101349.97
2022-08-02T14:24:45.037Z,101341.97
2022-08-02T14:27:13.554Z,101343.97
2022-08-02T14:29:41.571Z,101331.13
2022-08-02T14:32:10.210Z,101338.66
2022-08-02T14:34:38.363Z,101328.81
2022-08-02T14:37:06.291Z,101322.78
2022-08-02T14:39:42.951Z,101317.47
2022-08-02T14:42:23.708Z,101327.81
2022-08-02T14:44:51.640Z,101329.47
2022-08-02T14:47:19.684Z,101324.28
2022-08-02T14:49:50.258Z,101335.59
2022-08-02T14:52:18.944Z,101332.25
2022-08-02T14:54:48.460Z,101337.94
2022-08-02T14:57:16.727Z,101327.59
2022-08-02T14:59:44.716Z,101330.16
2022-08-02T15:02:13.595Z,101327.16
2022-08-02T15:04:43.149Z,101327.16
2022-08-02T15:07:11.515Z,101321.63
2022-08-02T15:09:40.053Z,101321.13
2022-08-02T15:12:10.847Z,101314.16
2022-08-02T15:14:39.245Z,101301.50
2022-08-02T15:17:07.977Z,101312.00
2022-08-02T15:19:58.188Z,101310.97
2022-08-02T15:22:23.837Z,101311.47
2022-08-02T15:24:52.063Z,101306.97
2022-08-02T15:27:21.434Z,101300.94
2022-08-02T15:29:49.567Z,101305.78
2022-08-02T15:32:19.795Z,101302.66
2022-08-02T15:34:47.859Z,101306.66
2022-08-02T15:37:16.080Z,101308.81
2022-08-02T15:39:44.176Z,101300.47
2022-08-02T15:42:12.508Z,101304.31
2022-08-02T15:44:42.155Z,101303.78
2022-08-02T15:47:10.090Z,101303.28
2022-08-02T15:49:41.390Z,101307.31
2022-08-02T15:52:11.047Z,101301.00
2022-08-02T15:54:39.431Z,101311.19
2022-08-02T15:57:07.756Z,101307.34
2022-08-02T15:59:35.737Z,101311.38
2022-08-02T16:02:06.818Z,101307.50
2022-08-02T16:04:34.912Z,101304.31
2022-08-02T16:07:02.971Z,101306.19
2022-08-02T16:09:30.898Z,101305.34
2022-08-02T16:11:58.970Z,101302.84
2022-08-02T16:14:26.977Z,101298.47
2022-08-02T16:16:56.177Z,101298.13
2022-08-02T16:19:38.790Z,101290.44
2022-08-02T16:22:13.607Z,101293.75
2022-08-02T16:24:41.820Z,101294.09
2022-08-02T16:27:09.708Z,101296.09
2022-08-02T16:29:37.748Z,101294.88
2022-08-02T16:32:06.467Z,101293.22
2022-08-02T16:35:04.068Z,101294.41
2022-08-02T16:37:24.187Z,101295.75
2022-08-02T16:39:52.265Z,101293.13
2022-08-02T16:42:25.359Z,101290.13
2022-08-02T16:44:54.895Z,101297.84
2022-08-02T16:47:37.101Z,101292.34
2022-08-02T16:50:12.910Z,101287.97
2022-08-02T16:52:40.926Z,101283.84
2022-08-02T16:55:11.125Z,101281.16
2022-08-02T16:57:43.344Z,101279.00
2022-08-02T17:00:15.650Z,101279.63
2022-08-02T17:02:44.419Z,101283.16
2022-08-02T17:05:16.597Z,101280.38
2022-08-02T17:08:07.317Z,101282.53
2022-08-02T17:10:34.271Z,101272.84
2022-08-02T17:13:11.176Z,101269.66
2022-08-02T17:16:16.133Z,101276.66
2022-08-02T17:18:29.384Z,101275.50
2022-08-02T17:20:59.054Z,101271.00
2022-08-02T17:24:05.624Z,101284.00
2022-08-02T17:26:15.325Z,101286.00
2022-08-02T17:29:14.241Z,101277.69
2022-08-02T17:31:42.090Z,101279.22
2022-08-02T17:34:11.667Z,101279.75
2022-08-02T17:36:41.147Z,101284.72
2022-08-02T17:39:09.359Z,101280.75
2022-08-02T17:41:49.023Z,101280.56
2022-08-02T17:44:37.620Z,101285.22
2022-08-02T17:47:06.588Z,101284.75
2022-08-02T17:49:37.199Z,101281.56
2022-08-02T17:52:48.040Z,101271.25
2022-08-02T17:55:03.293Z,101268.56
2022-08-02T17:57:57.903Z,101275.25
2022-08-02T18:00:20.101Z,101276.56
2022-08-02T18:02:54.899Z,101280.41
2022-08-02T18:05:38.968Z,101276.44
2022-08-02T18:08:10.119Z,101281.41
2022-08-02T18:10:39.319Z,101281.25
2022-08-02T18:13:07.260Z,101284.94
2022-08-02T18:15:35.883Z,101286.09
2022-08-02T18:18:03.972Z,101284.91
2022-08-02T18:20:32.028Z,101286.78
2022-08-02T18:23:00.326Z,101284.59
2022-08-02T18:25:37.847Z,101282.28
2022-08-02T18:28:15.130Z,101276.59
2022-08-02T18:30:43.446Z,101285.75
2022-08-02T18:33:56.892Z,101287.75
2022-08-02T18:35:59.473Z,101288.75
2022-08-02T18:38:30.250Z,101294.59
2022-08-02T18:41:02.754Z,101284.09
2022-08-02T18:43:34.588Z,101286.91
2022-08-02T18:46:15.753Z,101285.44
2022-08-02T18:48:46.498Z,101294.56
2022-08-02T18:51:15.498Z,101292.53
2022-08-02T18:53:43.947Z,101295.50
2022-08-02T18:56:20.262Z,101291.34
2022-08-02T18:58:53.199Z,101286.34
2022-08-02T19:01:32.056Z,101283.84
2022-08-02T19:04:02.538Z,101294.84
2022-08-02T19:06:30.903Z,101293.50
2022-08-02T19:09:03.551Z,101302.31
2022-08-02T19:11:41.369Z,101297.13
2022-08-02T19:14:24.187Z,101296.94
2022-08-02T19:16:56.736Z,101301.41
2022-08-02T19:19:29.151Z,101305.41
2022-08-02T19:22:17.617Z,101309.03
2022-08-02T19:24:47.177Z,101303.38
2022-08-02T19:27:25.642Z,101304.50
2022-08-02T19:29:54.887Z,101301.38
2022-08-02T19:32:42.298Z,101305.16
2022-08-02T19:35:19.526Z,101306.47
2022-08-02T19:37:59.603Z,101302.47
2022-08-02T19:40:29.098Z,101303.44
2022-08-02T19:44:20.695Z,101301.25
2022-08-02T19:45:50.567Z,101307.91
2022-08-02T19:48:35.424Z,101308.19
2022-08-02T19:51:07.627Z,101299.69
2022-08-02T19:56:25.580Z,101305.81
2022-08-02T19:58:57.939Z,101307.63
2022-08-02T20:01:36.920Z,101304.59
2022-08-02T20:04:13.393Z,101306.28
2022-08-02T20:06:45.313Z,101307.56
2022-08-02T20:09:16.432Z,101307.72
2022-08-02T20:11:45.171Z,101306.06
2022-08-02T20:14:14.518Z,101307.22
2022-08-02T20:16:42.595Z,101304.19
2022-08-02T20:19:14.120Z,101314.31
2022-08-02T20:21:46.517Z,101308.16
2022-08-02T20:24:21.140Z,101314.47
2022-08-02T20:26:54.563Z,101310.31
2022-08-02T20:29:42.912Z,101312.09
2022-08-02T20:32:12.089Z,101317.25
2022-08-02T20:34:40.056Z,101313.72
2022-08-02T20:37:59.688Z,101310.53
2022-08-02T20:39:55.951Z,101319.50
2022-08-02T20:42:24.690Z,101318.84
2022-08-02T20:44:55.119Z,101314.50
2022-08-02T20:47:27.742Z,101317.31
2022-08-02T20:50:30.704Z,101314.81
2022-08-02T20:53:00.497Z,101314.16
2022-08-02T20:55:31.280Z,101317.94
2022-08-02T20:58:01.766Z,101318.25
2022-08-02T21:00:32.507Z,101317.44
2022-08-02T21:03:02.963Z,101309.06
2022-08-02T21:05:54.673Z,101315.53
2022-08-02T21:08:25.476Z,101319.31
2022-08-02T21:10:55.505Z,101324.63
2022-08-02T21:13:26.110Z,101315.84
2022-08-02T21:16:00.796Z,101317.81
2022-08-02T21:18:40.549Z,101317.81
2022-08-02T21:21:09.746Z,101317.97
2022-08-02T21:23:38.478Z,101320.78
2022-08-02T21:26:25.714Z,101320.22
2022-08-02T21:28:56.718Z,101327.25
2022-08-02T21:31:29.721Z,101323.75
2022-08-02T21:33:59.383Z,101324.00
2022-08-02T21:36:30.588Z,101324.31
2022-08-02T21:38:59.562Z,101328.13
2022-08-02T21:41:38.473Z,101325.47
2022-08-02T21:44:08.699Z,101322.72
2022-08-02T21:46:38.039Z,101328.72
2022-08-02T21:49:06.660Z,101325.38
2022-08-02T21:51:34.644Z,101320.38
2022-08-02T21:54:17.610Z,101321.66
2022-08-02T21:56:48.227Z,101318.63
2022-08-02T21:59:16.965Z,101322.56
2022-08-02T22:01:52.304Z,101324.69
2022-08-02T22:04:21.858Z,101322.47
2022-08-02T22:06:49.799Z,101322.09
2022-08-02T22:09:43.024Z,101334.00
2022-08-02T22:12:09.809Z,101341.72
2022-08-02T22:14:39.581Z,101344.28
2022-08-02T22:17:13.728Z,101339.19
2022-08-02T22:19:53.935Z,101348.31
2022-08-02T22:22:28.126Z,101355.13
2022-08-02T22:24:57.064Z,101357.44
2022-08-02T22:28:36.627Z,101366.25
2022-08-02T22:30:13.592Z,101366.31
2022-08-02T22:33:01.191Z,101358.22
2022-08-02T22:35:29.279Z,101354.03
2022-08-02T22:38:15.039Z,101359.50
2022-08-02T22:40:45.738Z,101363.13
2022-08-02T22:43:22.661Z,101366.22
2022-08-02T22:45:51.379Z,101364.69
2022-08-02T22:48:20.908Z,101370.00
2022-08-02T22:50:52.788Z,101373.19
2022-08-02T22:53:35.340Z,101375.56
2022-08-02T22:56:03.742Z,101374.47
2022-08-02T22:58:32.694Z,101369.16
2022-08-02T22:58:53.719Z,101307.84
2022-08-02T23:01:01.114Z,101370.25
2022-08-02T23:03:30.582Z,101363.44
2022-08-02T23:05:58.682Z,101368.88
2022-08-02T23:08:26.626Z,101367.03
2022-08-02T23:10:54.563Z,101364.53
2022-08-02T23:13:26.609Z,101358.66
2022-08-02T23:16:13.743Z,101369.53
2022-08-02T23:19:00.848Z,101369.13
2022-08-02T23:21:45.740Z,101358.09
2022-08-02T23:24:22.596Z,101357.69
2022-08-02T23:26:50.612Z,101361.03
2022-08-02T23:29:18.515Z,101358.50
2022-08-02T23:31:46.418Z,101357.69
2022-08-02T23:34:15.857Z,101360.47
2022-08-02T23:36:43.796Z,101353.63
2022-08-02T23:39:11.691Z,101358.38
2022-08-02T23:41:39.692Z,101362.97
2022-08-02T23:44:15.437Z,101369.53
2022-08-02T23:46:44.540Z,101369.94
2022-08-02T23:49:13.059Z,101357.50
2022-08-02T23:51:42.430Z,101346.94
2022-08-02T23:54:10.610Z,101342.63
2022-08-02T23:56:39.225Z,101342.47
2022-08-02T23:59:07.746Z,101342.75
